createdAt,value
2019-05-03T00:00:26.542Z,974.64
2019-05-03T00:01:26.489Z,974.61
2019-05-03T00:02:26.482Z,974.63
2019-05-03T00:03:26.435Z,974.65
2019-05-03T00:04:26.376Z,974.69
2019-05-03T00:05:26.360Z,974.68
2019-05-03T00:06:26.332Z,974.66
2019-05-03T00:07:26.304Z,974.71
2019-05-03T00:08:26.234Z,974.69
2019-05-03T00:09:26.211Z,974.70
2019-05-03T00:10:26.151Z,974.70
2019-05-03T00:11:26.110Z,974.69
2019-05-03T00:12:26.087Z,974.72
2019-05-03T00:13:26.078Z,974.71
2019-05-03T00:14:25.997Z,974.70
2019-05-03T00:15:26.009Z,974.70
2019-05-03T00:16:25.933Z,974.69
2019-05-03T00:17:25.905Z,974.67
2019-05-03T00:18:25.873Z,974.63
2019-05-03T00:19:25.822Z,974.66
2019-05-03T00:20:25.808Z,974.62
2019-05-03T00:21:25.747Z,974.60
2019-05-03T00:22:25.708Z,974.61
2019-05-03T00:23:25.697Z,974.59
2019-05-03T00:24:25.671Z,974.59
2019-05-03T00:25:25.631Z,974.63
2019-05-03T00:26:25.587Z,974.55
2019-05-03T00:27:25.558Z,974.56
2019-05-03T00:28:25.493Z,974.56
2019-05-03T00:29:25.455Z,974.54
2019-05-03T00:30:25.411Z,974.59
2019-05-03T00:31:25.360Z,974.59
2019-05-03T00:32:25.327Z,974.58
2019-05-03T00:33:25.300Z,974.57
2019-05-03T00:34:25.266Z,974.54
2019-05-03T00:35:25.249Z,974.55
2019-05-03T00:36:25.180Z,974.55
2019-05-03T00:37:25.202Z,974.56
2019-05-03T00:38:25.127Z,974.53
2019-05-03T00:39:25.068Z,974.53
2019-05-03T00:40:25.040Z,974.57
2019-05-03T00:41:25.024Z,974.60
2019-05-03T00:42:24.971Z,974.59
2019-05-03T00:43:24.919Z,974.60
2019-05-03T00:44:24.915Z,974.64
2019-05-03T00:45:24.865Z,974.62
2019-05-03T00:46:24.829Z,974.63
2019-05-03T00:47:24.772Z,974.65
2019-05-03T00:48:24.760Z,974.62
2019-05-03T00:49:24.756Z,974.63
2019-05-03T00:50:24.675Z,974.62
2019-05-03T00:51:24.634Z,974.61
2019-05-03T00:52:24.621Z,974.59
2019-05-03T00:53:24.555Z,974.59
2019-05-03T00:54:24.509Z,974.58
2019-05-03T00:55:24.487Z,974.56
2019-05-03T00:56:24.464Z,974.57
2019-05-03T00:57:24.420Z,974.58
2019-05-03T00:58:24.372Z,974.58
2019-05-03T00:59:24.324Z,974.56
2019-05-03T01:00:24.290Z,974.61
2019-05-03T01:01:24.257Z,974.61
2019-05-03T01:02:26.284Z,974.62
2019-05-03T01:03:24.185Z,974.65
2019-05-03T01:04:24.148Z,974.65
2019-05-03T01:05:24.106Z,974.63
2019-05-03T01:06:24.079Z,974.63
2019-05-03T01:07:24.059Z,974.63
2019-05-03T01:08:24.002Z,974.66
2019-05-03T01:09:23.974Z,974.63
2019-05-03T01:10:23.931Z,974.67
2019-05-03T01:11:23.904Z,974.67
2019-05-03T01:12:23.908Z,974.70
2019-05-03T01:13:23.807Z,974.67
2019-05-03T01:14:23.799Z,974.73
2019-05-03T01:15:23.741Z,974.70
2019-05-03T01:16:23.709Z,974.68
2019-05-03T01:17:23.690Z,974.72
2019-05-03T01:18:23.624Z,974.69
2019-05-03T01:19:23.617Z,974.71
2019-05-03T01:20:23.557Z,974.73
2019-05-03T01:21:23.518Z,974.73
2019-05-03T01:22:23.493Z,974.72
2019-05-03T01:23:23.454Z,974.72
2019-05-03T01:24:23.416Z,974.75
2019-05-03T01:25:32.272Z,974.74
2019-05-03T01:26:23.332Z,974.74
2019-05-03T01:27:23.316Z,974.75
2019-05-03T01:28:23.262Z,974.77
2019-05-03T01:29:23.243Z,974.76
2019-05-03T01:30:23.215Z,974.75
2019-05-03T01:31:23.179Z,974.76
2019-05-03T01:32:23.121Z,974.70
2019-05-03T01:33:23.090Z,974.75
2019-05-03T01:34:23.064Z,974.80
2019-05-03T01:35:23.012Z,974.75
2019-05-03T01:36:23.064Z,974.74
2019-05-03T01:37:22.929Z,974.75
2019-05-03T01:38:22.893Z,974.78
2019-05-03T01:39:22.859Z,974.76
2019-05-03T01:40:22.845Z,974.78
2019-05-03T01:41:22.787Z,974.78
2019-05-03T01:42:22.800Z,974.75
2019-05-03T01:43:22.701Z,974.79
2019-05-03T01:44:22.688Z,974.82
2019-05-03T01:45:22.852Z,974.80
2019-05-03T01:46:22.973Z,974.82
2019-05-03T01:47:23.315Z,974.79
2019-05-03T01:48:22.543Z,974.79
2019-05-03T01:49:23.307Z,974.78
2019-05-03T01:50:22.894Z,974.78
2019-05-03T01:51:22.406Z,974.83
2019-05-03T01:52:22.374Z,974.80
2019-05-03T01:53:22.366Z,974.82
2019-05-03T01:54:22.900Z,974.79
2019-05-03T01:55:22.660Z,974.79
2019-05-03T01:56:22.395Z,974.80
2019-05-03T01:57:22.204Z,974.79
2019-05-03T01:58:22.160Z,974.82
2019-05-03T01:59:22.706Z,974.78
2019-05-03T02:00:22.523Z,974.82
2019-05-03T02:01:22.168Z,974.82
2019-05-03T02:02:23.032Z,974.81
2019-05-03T02:03:21.973Z,974.82
2019-05-03T02:04:21.950Z,974.82
2019-05-03T02:05:22.508Z,974.84
2019-05-03T02:06:22.388Z,974.86
2019-05-03T02:07:22.325Z,974.81
2019-05-03T02:08:22.054Z,974.84
2019-05-03T02:09:21.755Z,974.86
2019-05-03T02:10:22.656Z,974.83
2019-05-03T02:11:22.220Z,974.84
2019-05-03T02:12:22.202Z,974.84
2019-05-03T02:13:22.963Z,974.83
2019-05-03T02:14:22.209Z,974.81
2019-05-03T02:15:22.129Z,974.83
2019-05-03T02:16:21.903Z,974.83
2019-05-03T02:17:22.669Z,974.82
2019-05-03T02:18:22.320Z,974.83
2019-05-03T02:19:22.022Z,974.80
2019-05-03T02:20:21.892Z,974.83
2019-05-03T02:21:21.688Z,974.82
2019-05-03T02:22:22.576Z,974.82
2019-05-03T02:23:22.406Z,974.77
2019-05-03T02:24:22.127Z,974.80
2019-05-03T02:25:21.762Z,974.79
2019-05-03T02:26:22.408Z,974.80
2019-05-03T02:27:21.984Z,974.77
2019-05-03T02:28:22.078Z,974.81
2019-05-03T02:29:21.938Z,974.82
2019-05-03T02:30:20.985Z,974.79
2019-05-03T02:31:23.132Z,974.79
2019-05-03T02:32:23.191Z,974.75
2019-05-03T02:33:23.195Z,974.77
2019-05-03T02:34:23.711Z,974.76
2019-05-03T02:35:22.736Z,974.73
2019-05-03T02:36:23.271Z,974.77
2019-05-03T02:37:22.466Z,974.77
2019-05-03T02:38:23.112Z,974.76
2019-05-03T02:39:22.895Z,974.79
2019-05-03T02:40:24.307Z,974.78
2019-05-03T02:41:22.697Z,974.78
2019-05-03T02:42:20.540Z,974.79
2019-05-03T02:43:20.508Z,974.84
2019-05-03T02:44:20.467Z,974.81
2019-05-03T02:45:20.440Z,974.84
2019-05-03T02:46:20.399Z,974.82
2019-05-03T02:47:20.352Z,974.79
2019-05-03T02:48:20.320Z,974.80
2019-05-03T02:49:20.283Z,974.79
2019-05-03T02:50:20.256Z,974.77
2019-05-03T02:51:20.213Z,974.81
2019-05-03T02:52:20.171Z,974.77
2019-05-03T02:53:20.140Z,974.77
2019-05-03T02:54:20.105Z,974.75
2019-05-03T02:55:20.066Z,974.78
2019-05-03T02:56:22.432Z,974.79
2019-05-03T02:57:19.997Z,974.76
2019-05-03T02:58:19.957Z,974.80
2019-05-03T02:59:19.917Z,974.77
2019-05-03T03:00:19.881Z,974.77
2019-05-03T03:01:19.850Z,974.77
2019-05-03T03:02:19.807Z,974.78
2019-05-03T03:03:19.766Z,974.81
2019-05-03T03:04:19.742Z,974.80
2019-05-03T03:05:19.696Z,974.84
2019-05-03T03:06:19.673Z,974.84
2019-05-03T03:07:19.632Z,974.81
2019-05-03T03:08:19.600Z,974.83
2019-05-03T03:09:19.554Z,974.81
2019-05-03T03:10:19.510Z,974.87
2019-05-03T03:11:19.483Z,974.86
2019-05-03T03:12:19.450Z,974.85
2019-05-03T03:13:19.408Z,974.85
2019-05-03T03:14:19.369Z,974.91
2019-05-03T03:15:19.332Z,974.93
2019-05-03T03:16:20.845Z,974.90
2019-05-03T03:17:19.289Z,974.93
2019-05-03T03:18:19.228Z,974.95
2019-05-03T03:19:19.186Z,974.97
2019-05-03T03:20:19.158Z,974.98
2019-05-03T03:21:19.121Z,974.98
2019-05-03T03:22:19.078Z,974.99
2019-05-03T03:23:19.046Z,975.05
2019-05-03T03:24:19.005Z,974.99
2019-05-03T03:25:18.965Z,975.04
2019-05-03T03:26:33.332Z,975.01
2019-05-03T03:27:18.901Z,975.05
2019-05-03T03:28:18.864Z,975.06
2019-05-03T03:29:18.864Z,975.06
2019-05-03T03:30:18.792Z,975.11
2019-05-03T03:31:18.753Z,975.13
2019-05-03T03:32:19.320Z,975.14
2019-05-03T03:33:18.682Z,975.10
2019-05-03T03:34:18.861Z,975.14
2019-05-03T03:35:21.476Z,975.20
2019-05-03T03:36:50.307Z,975.10
2019-05-03T03:37:18.530Z,975.23
2019-05-03T03:38:18.483Z,975.19
2019-05-03T03:39:18.447Z,975.22
2019-05-03T03:40:18.414Z,975.25
2019-05-03T03:41:18.372Z,975.27
2019-05-03T03:42:18.338Z,975.36
2019-05-03T03:43:18.302Z,975.37
2019-05-03T03:44:18.267Z,975.35
2019-05-03T03:45:18.235Z,975.39
2019-05-03T03:46:18.185Z,975.38
2019-05-03T03:47:18.152Z,975.43
2019-05-03T03:48:18.115Z,975.42
2019-05-03T03:49:18.081Z,975.43
2019-05-03T03:50:18.049Z,975.49
2019-05-03T03:51:18.018Z,975.47
2019-05-03T03:52:17.962Z,975.51
2019-05-03T03:53:17.940Z,975.48
2019-05-03T03:54:17.894Z,975.41
2019-05-03T03:55:17.880Z,975.46
2019-05-03T03:56:17.832Z,975.48
2019-05-03T03:57:17.787Z,975.47
2019-05-03T03:58:22.673Z,975.50
2019-05-03T03:59:17.710Z,975.53
2019-05-03T04:00:17.712Z,975.50
2019-05-03T04:01:17.658Z,975.54
2019-05-03T04:02:17.624Z,975.56
2019-05-03T04:03:17.572Z,975.59
2019-05-03T04:04:17.549Z,975.60
2019-05-03T04:05:17.495Z,975.65
2019-05-03T04:06:17.485Z,975.65
2019-05-03T04:07:17.429Z,975.72
2019-05-03T04:08:17.376Z,975.69
2019-05-03T04:09:17.340Z,975.74
2019-05-03T04:10:17.314Z,975.77
2019-05-03T04:11:17.257Z,975.80
2019-05-03T04:12:17.222Z,975.77
2019-05-03T04:13:17.184Z,975.75
2019-05-03T04:14:17.151Z,975.80
2019-05-03T04:15:17.112Z,975.83
2019-05-03T04:16:20.763Z,975.82
2019-05-03T04:17:17.040Z,975.87
2019-05-03T04:18:17.000Z,975.90
2019-05-03T04:19:17.536Z,975.92
2019-05-03T04:20:16.926Z,975.93
2019-05-03T04:21:16.900Z,975.90
2019-05-03T04:22:16.864Z,975.92
2019-05-03T04:23:16.807Z,975.98
2019-05-03T04:24:16.770Z,976.00
2019-05-03T04:25:16.734Z,976.03
2019-05-03T04:26:16.699Z,976.04
2019-05-03T04:27:22.876Z,976.05
2019-05-03T04:28:16.621Z,976.08
2019-05-03T04:29:16.590Z,976.17
2019-05-03T04:30:16.811Z,976.16
2019-05-03T04:31:16.517Z,976.15
2019-05-03T04:32:16.511Z,976.14
2019-05-03T04:33:16.429Z,976.18
2019-05-03T04:34:16.427Z,976.21
2019-05-03T04:35:16.689Z,976.22
2019-05-03T04:36:16.327Z,976.23
2019-05-03T04:37:16.577Z,976.24
2019-05-03T04:38:16.562Z,976.20
2019-05-03T04:39:20.049Z,976.26
2019-05-03T04:40:16.221Z,976.26
2019-05-03T04:41:16.146Z,976.27
2019-05-03T04:42:16.771Z,976.28
2019-05-03T04:43:16.668Z,976.32
2019-05-03T04:44:16.048Z,976.36
2019-05-03T04:45:16.583Z,976.35
2019-05-03T04:46:16.548Z,976.36
2019-05-03T04:47:15.973Z,976.37
2019-05-03T04:48:16.210Z,976.40
2019-05-03T04:49:15.873Z,976.40
2019-05-03T04:50:16.552Z,976.39
2019-05-03T04:51:16.663Z,976.41
2019-05-03T04:52:16.494Z,976.43
2019-05-03T04:53:16.200Z,976.39
2019-05-03T04:54:16.527Z,976.40
2019-05-03T04:55:16.147Z,976.41
2019-05-03T04:56:16.862Z,976.43
2019-05-03T04:57:21.154Z,976.38
2019-05-03T04:58:16.215Z,976.43
2019-05-03T04:59:16.135Z,976.40
2019-05-03T05:00:15.974Z,976.44
2019-05-03T05:01:15.928Z,976.45
2019-05-03T05:02:15.899Z,976.51
2019-05-03T05:03:15.334Z,976.51
2019-05-03T05:04:16.182Z,976.48
2019-05-03T05:05:15.550Z,976.51
2019-05-03T05:06:15.575Z,976.51
2019-05-03T05:07:15.725Z,976.47
2019-05-03T05:08:16.272Z,976.49
2019-05-03T05:09:15.632Z,976.53
2019-05-03T05:10:15.490Z,976.57
2019-05-03T05:11:15.774Z,976.57
2019-05-03T05:12:16.106Z,976.61
2019-05-03T05:13:15.749Z,976.66
2019-05-03T05:14:15.422Z,976.67
2019-05-03T05:15:15.618Z,976.62
2019-05-03T05:16:16.037Z,976.62
2019-05-03T05:17:16.304Z,976.64
2019-05-03T05:18:16.025Z,976.63
2019-05-03T05:19:15.182Z,976.64
2019-05-03T05:20:14.685Z,976.65
2019-05-03T05:21:15.035Z,976.60
2019-05-03T05:22:15.558Z,976.60
2019-05-03T05:23:14.862Z,976.63
2019-05-03T05:24:15.147Z,976.64
2019-05-03T05:25:14.889Z,976.68
2019-05-03T05:26:14.578Z,976.62
2019-05-03T05:27:14.686Z,976.67
2019-05-03T05:28:15.026Z,976.68
2019-05-03T05:29:14.593Z,976.69
2019-05-03T05:30:14.977Z,976.69
2019-05-03T05:31:15.131Z,976.72
2019-05-03T05:32:14.501Z,976.76
2019-05-03T05:33:14.552Z,976.79
2019-05-03T05:34:15.375Z,976.78
2019-05-03T05:35:14.417Z,976.82
2019-05-03T05:36:15.285Z,976.83
2019-05-03T05:37:14.505Z,976.91
2019-05-03T05:38:14.973Z,976.92
2019-05-03T05:39:15.269Z,976.96
2019-05-03T05:40:15.625Z,977.00
2019-05-03T05:41:15.632Z,976.99
2019-05-03T05:42:14.919Z,977.00
2019-05-03T05:43:15.231Z,977.08
2019-05-03T05:44:14.504Z,977.08
2019-05-03T05:45:15.317Z,977.08
2019-05-03T05:46:15.174Z,977.07
2019-05-03T05:47:15.002Z,977.09
2019-05-03T05:48:15.329Z,977.14
2019-05-03T05:49:14.666Z,977.13
2019-05-03T05:50:14.893Z,977.16
2019-05-03T05:51:15.842Z,977.19
2019-05-03T05:52:15.336Z,977.17
2019-05-03T05:53:15.133Z,977.17
2019-05-03T05:54:14.354Z,977.21
2019-05-03T05:55:14.915Z,977.23
2019-05-03T05:56:13.357Z,977.23
2019-05-03T05:57:14.918Z,977.18
2019-05-03T05:58:15.572Z,977.20
2019-05-03T05:59:14.866Z,977.22
2019-05-03T06:00:15.217Z,977.25
2019-05-03T06:01:14.616Z,977.25
2019-05-03T06:02:14.954Z,977.26
2019-05-03T06:03:14.843Z,977.23
2019-05-03T06:04:13.058Z,977.24
2019-05-03T06:05:14.670Z,977.20
2019-05-03T06:06:12.974Z,977.23
2019-05-03T06:07:14.780Z,977.22
2019-05-03T06:08:14.989Z,977.25
2019-05-03T06:09:15.324Z,977.24
2019-05-03T06:10:14.716Z,977.32
2019-05-03T06:11:14.769Z,977.30
2019-05-03T06:12:14.760Z,977.33
2019-05-03T06:13:12.695Z,977.29
2019-05-03T06:14:12.670Z,977.29
2019-05-03T06:15:12.628Z,977.30
2019-05-03T06:16:12.596Z,977.35
2019-05-03T06:17:14.528Z,977.37
2019-05-03T06:18:14.555Z,977.37
2019-05-03T06:19:12.486Z,977.38
2019-05-03T06:20:12.439Z,977.40
2019-05-03T06:21:14.850Z,977.42
2019-05-03T06:22:12.374Z,977.42
2019-05-03T06:23:14.339Z,977.48
2019-05-03T06:24:12.284Z,977.54
2019-05-03T06:25:12.279Z,977.52
2019-05-03T06:26:12.219Z,977.57
2019-05-03T06:27:12.180Z,977.51
2019-05-03T06:28:19.957Z,977.52
2019-05-03T06:29:12.111Z,977.54
2019-05-03T06:30:12.072Z,977.56
2019-05-03T06:31:12.045Z,977.55
2019-05-03T06:32:12.003Z,977.54
2019-05-03T06:33:11.964Z,977.54
2019-05-03T06:34:11.917Z,977.50
2019-05-03T06:35:11.874Z,977.55
2019-05-03T06:36:11.862Z,977.59
2019-05-03T06:37:11.805Z,977.56
2019-05-03T06:38:11.782Z,977.56
2019-05-03T06:39:11.738Z,977.55
2019-05-03T06:40:11.712Z,977.58
2019-05-03T06:41:11.643Z,977.58
2019-05-03T06:42:17.533Z,977.59
2019-05-03T06:43:12.919Z,977.58
2019-05-03T06:44:11.552Z,977.60
2019-05-03T06:45:11.830Z,977.67
2019-05-03T06:46:11.481Z,977.65
2019-05-03T06:47:11.428Z,977.65
2019-05-03T06:48:11.394Z,977.66
2019-05-03T06:49:11.355Z,977.64
2019-05-03T06:50:11.316Z,977.68
2019-05-03T06:51:17.247Z,977.66
2019-05-03T06:52:11.258Z,977.65
2019-05-03T06:53:13.004Z,977.64
2019-05-03T06:54:11.208Z,977.64
2019-05-03T06:55:11.127Z,977.72
2019-05-03T06:56:11.087Z,977.73
2019-05-03T06:57:11.051Z,977.75
2019-05-03T06:58:11.012Z,977.76
2019-05-03T06:59:10.976Z,977.77
2019-05-03T07:00:10.950Z,977.79
2019-05-03T07:01:11.379Z,977.80
2019-05-03T07:02:10.856Z,977.80
2019-05-03T07:03:10.823Z,977.77
2019-05-03T07:04:10.791Z,977.78
2019-05-03T07:05:10.744Z,977.78
2019-05-03T07:06:10.724Z,977.78
2019-05-03T07:07:10.672Z,977.82
2019-05-03T07:08:10.629Z,977.80
2019-05-03T07:09:10.602Z,977.86
2019-05-03T07:10:10.566Z,977.81
2019-05-03T07:11:10.517Z,977.83
2019-05-03T07:12:10.481Z,977.84
2019-05-03T07:13:10.435Z,977.88
2019-05-03T07:14:10.395Z,977.86
2019-05-03T07:15:10.371Z,977.90
2019-05-03T07:16:10.324Z,977.90
2019-05-03T07:17:10.287Z,977.92
2019-05-03T07:18:10.250Z,977.91
2019-05-03T07:19:10.208Z,977.94
2019-05-03T07:20:10.175Z,977.92
2019-05-03T07:21:10.144Z,977.92
2019-05-03T07:22:10.093Z,977.95
2019-05-03T07:23:10.071Z,977.97
2019-05-03T07:24:10.022Z,977.99
2019-05-03T07:25:10.001Z,978.01
2019-05-03T07:26:09.950Z,978.03
2019-05-03T07:27:09.912Z,977.98
2019-05-03T07:28:09.870Z,977.97
2019-05-03T07:29:09.848Z,977.98
2019-05-03T07:30:09.798Z,977.98
2019-05-03T07:31:09.772Z,977.97
2019-05-03T07:32:09.719Z,977.96
2019-05-03T07:33:09.679Z,978.00
2019-05-03T07:34:09.656Z,977.99
2019-05-03T07:35:09.605Z,978.01
2019-05-03T07:36:09.570Z,977.99
2019-05-03T07:37:09.531Z,977.98
2019-05-03T07:38:09.492Z,978.01
2019-05-03T07:39:09.452Z,977.99
2019-05-03T07:40:09.412Z,977.97
2019-05-03T07:41:09.379Z,978.02
2019-05-03T07:42:09.344Z,978.02
2019-05-03T07:43:09.309Z,978.05
2019-05-03T07:44:09.269Z,978.06
2019-05-03T07:45:09.229Z,978.02
2019-05-03T07:46:09.188Z,978.05
2019-05-03T07:47:09.150Z,978.05
2019-05-03T07:48:09.120Z,978.04
2019-05-03T07:49:09.076Z,978.03
2019-05-03T07:50:09.041Z,978.04
2019-05-03T07:51:08.994Z,978.04
2019-05-03T07:52:11.753Z,978.04
2019-05-03T07:53:08.932Z,978.06
2019-05-03T07:54:08.889Z,978.07
2019-05-03T07:55:08.880Z,978.07
2019-05-03T07:56:08.834Z,978.09
2019-05-03T07:57:08.777Z,978.05
2019-05-03T07:58:08.729Z,978.05
2019-05-03T07:59:08.708Z,978.06
2019-05-03T08:00:08.660Z,978.06
2019-05-03T08:01:10.028Z,978.04
2019-05-03T08:02:08.603Z,978.07
2019-05-03T08:03:08.556Z,978.12
2019-05-03T08:04:08.575Z,978.14
2019-05-03T08:05:08.491Z,978.12
2019-05-03T08:06:08.439Z,978.11
2019-05-03T08:07:19.865Z,978.11
2019-05-03T08:08:08.365Z,978.12
2019-05-03T08:09:08.323Z,978.11
2019-05-03T08:10:08.302Z,978.14
2019-05-03T08:11:08.269Z,978.18
2019-05-03T08:12:08.292Z,978.17
2019-05-03T08:13:08.226Z,978.09
2019-05-03T08:14:08.173Z,978.11
2019-05-03T08:15:08.119Z,978.09
2019-05-03T08:16:08.103Z,978.14
2019-05-03T08:17:08.025Z,978.12
2019-05-03T08:18:07.986Z,978.13
2019-05-03T08:19:07.942Z,978.18
2019-05-03T08:20:07.906Z,978.21
2019-05-03T08:21:07.872Z,978.22
2019-05-03T08:22:07.855Z,978.23
2019-05-03T08:23:07.781Z,978.23
2019-05-03T08:24:07.768Z,978.24
2019-05-03T08:25:07.725Z,978.23
2019-05-03T08:26:07.679Z,978.27
2019-05-03T08:27:07.644Z,978.26
2019-05-03T08:28:07.610Z,978.26
2019-05-03T08:29:16.127Z,978.25
2019-05-03T08:30:07.528Z,978.29
2019-05-03T08:31:07.491Z,978.23
2019-05-03T08:32:07.494Z,978.25
2019-05-03T08:33:07.433Z,978.25
2019-05-03T08:34:07.394Z,978.23
2019-05-03T08:35:07.352Z,978.22
2019-05-03T08:36:07.302Z,978.21
2019-05-03T08:37:07.271Z,978.22
2019-05-03T08:38:07.234Z,978.23
2019-05-03T08:39:07.205Z,978.18
2019-05-03T08:40:07.160Z,978.24
2019-05-03T08:41:07.127Z,978.25
2019-05-03T08:42:07.095Z,978.24
2019-05-03T08:43:07.046Z,978.23
2019-05-03T08:44:07.017Z,978.25
2019-05-03T08:45:08.135Z,978.23
2019-05-03T08:46:06.938Z,978.26
2019-05-03T08:47:06.894Z,978.23
2019-05-03T08:48:06.860Z,978.31
2019-05-03T08:49:06.835Z,978.25
2019-05-03T08:50:06.779Z,978.28
2019-05-03T08:51:06.752Z,978.30
2019-05-03T08:52:06.728Z,978.30
2019-05-03T08:53:06.690Z,978.26
2019-05-03T08:54:06.640Z,978.19
2019-05-03T08:55:06.601Z,978.22
2019-05-03T08:56:06.582Z,978.26
2019-05-03T08:57:06.531Z,978.19
2019-05-03T08:58:06.496Z,978.22
2019-05-03T08:59:06.463Z,978.22
2019-05-03T09:00:06.421Z,978.15
2019-05-03T09:01:06.377Z,978.16
2019-05-03T09:02:14.096Z,978.16
2019-05-03T09:03:06.301Z,978.19
2019-05-03T09:04:06.285Z,978.16
2019-05-03T09:05:06.240Z,978.19
2019-05-03T09:06:06.205Z,978.17
2019-05-03T09:07:06.165Z,978.15
2019-05-03T09:08:06.131Z,978.14
2019-05-03T09:09:06.094Z,978.18
2019-05-03T09:10:06.073Z,978.17
2019-05-03T09:11:06.034Z,978.15
2019-05-03T09:12:05.999Z,978.14
2019-05-03T09:13:06.538Z,978.14
2019-05-03T09:14:05.926Z,978.11
2019-05-03T09:15:05.874Z,978.14
2019-05-03T09:16:05.860Z,978.09
2019-05-03T09:17:05.801Z,978.09
2019-05-03T09:18:05.773Z,978.05
2019-05-03T09:19:05.845Z,978.05
2019-05-03T09:20:05.709Z,978.04
2019-05-03T09:21:05.649Z,978.05
2019-05-03T09:22:06.194Z,978.03
2019-05-03T09:23:05.640Z,978.02
2019-05-03T09:24:05.591Z,978.04
2019-05-03T09:25:05.550Z,977.98
2019-05-03T09:26:05.570Z,977.98
2019-05-03T09:27:05.617Z,978.05
2019-05-03T09:28:05.431Z,978.02
2019-05-03T09:29:05.618Z,978.00
2019-05-03T09:30:05.350Z,978.04
2019-05-03T09:31:05.350Z,978.03
2019-05-03T09:32:05.354Z,978.05
2019-05-03T09:33:08.654Z,978.06
2019-05-03T09:34:08.105Z,977.99
2019-05-03T09:35:05.572Z,978.04
2019-05-03T09:36:05.396Z,977.96
2019-05-03T09:37:05.131Z,978.01
2019-05-03T09:38:05.677Z,978.04
2019-05-03T09:39:05.138Z,978.07
2019-05-03T09:40:05.008Z,978.03
2019-05-03T09:41:05.286Z,978.02
2019-05-03T09:42:04.933Z,977.99
2019-05-03T09:43:04.894Z,978.04
2019-05-03T09:44:04.894Z,978.05
2019-05-03T09:45:05.027Z,978.04
2019-05-03T09:46:05.183Z,978.06
2019-05-03T09:47:05.656Z,978.00
2019-05-03T09:48:05.737Z,978.03
2019-05-03T09:49:13.316Z,978.04
2019-05-03T09:50:04.786Z,978.03
2019-05-03T09:51:05.180Z,978.05
2019-05-03T09:52:08.001Z,978.06
2019-05-03T09:53:05.447Z,978.06
2019-05-03T09:54:05.311Z,978.09
2019-05-03T09:55:05.225Z,978.02
2019-05-03T09:56:05.041Z,978.04
2019-05-03T09:57:05.827Z,978.06
2019-05-03T09:58:05.577Z,978.02
2019-05-03T09:59:05.413Z,978.05
2019-05-03T10:00:04.939Z,978.01
2019-05-03T10:01:06.192Z,978.01
2019-05-03T10:02:05.001Z,978.02
2019-05-03T10:03:05.575Z,978.04
2019-05-03T10:04:05.506Z,978.04
2019-05-03T10:05:04.141Z,978.09
2019-05-03T10:06:04.101Z,978.11
2019-05-03T10:07:04.126Z,978.05
2019-05-03T10:08:05.131Z,978.05
2019-05-03T10:09:05.379Z,978.10
2019-05-03T10:10:05.726Z,978.06
2019-05-03T10:11:05.508Z,978.11
2019-05-03T10:12:05.482Z,978.07
2019-05-03T10:13:13.238Z,978.07
2019-05-03T10:14:04.703Z,978.06
2019-05-03T10:15:06.341Z,978.04
2019-05-03T10:16:06.051Z,978.06
2019-05-03T10:17:05.091Z,978.05
2019-05-03T10:18:10.290Z,978.03
2019-05-03T10:19:03.682Z,978.04
2019-05-03T10:20:03.630Z,978.05
2019-05-03T10:21:05.369Z,978.02
2019-05-03T10:22:04.709Z,978.02
2019-05-03T10:23:05.323Z,978.03
2019-05-03T10:24:05.575Z,978.01
2019-05-03T10:25:04.970Z,978.03
2019-05-03T10:26:05.088Z,977.99
2019-05-03T10:27:05.468Z,977.93
2019-05-03T10:28:05.643Z,977.97
2019-05-03T10:29:05.274Z,977.94
2019-05-03T10:30:12.225Z,977.92
2019-05-03T10:31:07.365Z,977.96
2019-05-03T10:32:03.218Z,977.93
2019-05-03T10:33:03.178Z,977.96
2019-05-03T10:34:05.543Z,977.95
2019-05-03T10:35:05.511Z,978.01
2019-05-03T10:36:05.352Z,977.99
2019-05-03T10:37:05.075Z,977.99
2019-05-03T10:38:03.021Z,978.00
2019-05-03T10:39:04.808Z,977.96
2019-05-03T10:40:05.806Z,978.03
2019-05-03T10:41:02.919Z,977.97
2019-05-03T10:42:04.808Z,977.98
2019-05-03T10:43:04.687Z,977.97
2019-05-03T10:44:02.842Z,977.98
2019-05-03T10:45:04.626Z,977.93
2019-05-03T10:46:04.975Z,977.93
2019-05-03T10:47:02.686Z,977.94
2019-05-03T10:48:04.536Z,977.97
2019-05-03T10:49:02.628Z,977.89
2019-05-03T10:50:04.480Z,977.92
2019-05-03T10:51:04.553Z,977.95
2019-05-03T10:52:02.531Z,977.95
2019-05-03T10:53:05.006Z,977.96
2019-05-03T10:54:02.467Z,977.92
2019-05-03T10:55:02.454Z,977.93
2019-05-03T10:56:02.381Z,977.97
2019-05-03T10:57:02.348Z,977.93
2019-05-03T10:58:02.375Z,977.92
2019-05-03T10:59:02.288Z,977.92
2019-05-03T11:00:02.248Z,977.94
2019-05-03T11:01:02.212Z,977.94
2019-05-03T11:02:02.178Z,977.93
2019-05-03T11:03:02.151Z,977.95
2019-05-03T11:04:02.106Z,977.94
2019-05-03T11:05:02.118Z,977.88
2019-05-03T11:06:02.041Z,977.93
2019-05-03T11:07:02.012Z,977.88
2019-05-03T11:08:02.033Z,977.91
2019-05-03T11:09:01.947Z,977.89
2019-05-03T11:10:01.908Z,977.87
2019-05-03T11:11:01.882Z,977.85
2019-05-03T11:12:01.886Z,977.85
2019-05-03T11:13:01.861Z,977.85
2019-05-03T11:14:01.790Z,977.87
2019-05-03T11:15:01.789Z,977.83
2019-05-03T11:16:01.910Z,977.85
2019-05-03T11:17:01.721Z,977.84
2019-05-03T11:18:01.661Z,977.84
2019-05-03T11:19:01.607Z,977.90
2019-05-03T11:20:01.592Z,977.79
2019-05-03T11:21:01.619Z,977.87
2019-05-03T11:22:01.508Z,977.88
2019-05-03T11:23:01.459Z,977.89
2019-05-03T11:24:01.442Z,977.84
2019-05-03T11:25:01.404Z,977.84
2019-05-03T11:26:01.360Z,977.93
2019-05-03T11:27:01.322Z,977.84
2019-05-03T11:28:01.284Z,977.85
2019-05-03T11:29:01.278Z,977.86
2019-05-03T11:30:01.273Z,977.82
2019-05-03T11:31:02.490Z,977.81
2019-05-03T11:32:01.382Z,977.78
2019-05-03T11:33:01.194Z,977.79
2019-05-03T11:34:01.106Z,977.78
2019-05-03T11:35:01.130Z,977.76
2019-05-03T11:36:01.038Z,977.78
2019-05-03T11:37:01.167Z,977.76
2019-05-03T11:38:00.945Z,977.78
2019-05-03T11:39:00.956Z,977.71
2019-05-03T11:40:00.873Z,977.75
2019-05-03T11:41:00.908Z,977.75
2019-05-03T11:42:00.805Z,977.80
2019-05-03T11:43:00.764Z,977.74
2019-05-03T11:44:00.754Z,977.76
2019-05-03T11:45:00.714Z,977.77
2019-05-03T11:46:00.709Z,977.76
2019-05-03T11:47:00.685Z,977.69
2019-05-03T11:48:00.626Z,977.65
2019-05-03T11:49:00.579Z,977.68
2019-05-03T11:50:00.544Z,977.64
2019-05-03T11:51:00.554Z,977.78
2019-05-03T11:52:00.477Z,977.74
2019-05-03T11:53:00.465Z,977.76
2019-05-03T11:54:00.476Z,977.81
2019-05-03T11:55:00.446Z,977.82
2019-05-03T11:56:00.348Z,977.81
2019-05-03T11:57:00.360Z,977.83
2019-05-03T11:58:00.316Z,977.83
2019-05-03T11:59:00.245Z,977.83
2019-05-03T12:00:00.225Z,977.81
2019-05-03T12:01:11.734Z,977.88
2019-05-03T12:02:00.169Z,977.93
2019-05-03T12:03:01.918Z,977.85
2019-05-03T12:04:00.118Z,977.88
2019-05-03T12:05:00.122Z,977.94
2019-05-03T12:06:00.032Z,977.93
2019-05-03T12:07:00.018Z,977.93
2019-05-03T12:07:59.999Z,977.92
2019-05-03T12:08:59.959Z,977.92
2019-05-03T12:09:59.983Z,977.88
2019-05-03T12:11:01.548Z,977.93
2019-05-03T12:11:59.841Z,977.97
2019-05-03T12:12:59.824Z,977.85
2019-05-03T12:14:04.141Z,977.84
2019-05-03T12:14:59.765Z,977.84
2019-05-03T12:15:59.724Z,977.90
2019-05-03T12:17:17.238Z,977.92
2019-05-03T12:17:59.933Z,977.84
2019-05-03T12:19:12.709Z,977.84
2019-05-03T12:20:01.051Z,977.79
2019-05-03T12:21:00.589Z,977.89
2019-05-03T12:22:00.138Z,977.89
2019-05-03T12:23:00.163Z,977.98
2019-05-03T12:23:59.964Z,977.85
2019-05-03T12:24:59.974Z,977.84
2019-05-03T12:25:59.941Z,977.79
2019-05-03T12:26:59.334Z,977.94
2019-05-03T12:27:59.341Z,977.87